createdAt,value
2019-01-17T00:01:37.271Z,39.70
2019-01-17T00:04:13.309Z,39.60
2019-01-17T00:06:59.560Z,39.60
2019-01-17T00:09:35.459Z,39.50
2019-01-17T00:12:10.899Z,39.80
2019-01-17T00:14:46.845Z,39.30
2019-01-17T00:17:32.928Z,39.30
2019-01-17T00:20:06.063Z,39.20
2019-01-17T00:22:53.997Z,39.20
2019-01-17T00:25:24.032Z,39.30
2019-01-17T00:27:56.953Z,39.20
2019-01-17T00:30:26.989Z,39.30
2019-01-17T00:32:59.933Z,39.30
2019-01-17T00:35:41.449Z,39.40
2019-01-17T00:38:11.411Z,39.20
2019-01-17T00:40:50.615Z,39.20
2019-01-17T00:43:20.635Z,39.20
2019-01-17T00:46:08.879Z,39.10
2019-01-17T00:48:38.828Z,39.00
2019-01-17T00:51:14.460Z,39.00
2019-01-17T00:53:50.245Z,39.00
2019-01-17T00:56:29.003Z,39.00
2019-01-17T00:59:10.983Z,39.00
2019-01-17T01:01:41.037Z,39.00
2019-01-17T01:04:23.283Z,39.10
2019-01-17T01:07:08.424Z,39.00
2019-01-17T01:09:41.245Z,39.00
2019-01-17T01:12:11.195Z,39.00
2019-01-17T01:14:44.101Z,39.00
2019-01-17T01:17:23.251Z,39.00
2019-01-17T01:20:08.510Z,38.90
2019-01-17T01:22:38.598Z,38.70
2019-01-17T01:25:10.344Z,38.70
2019-01-17T01:27:40.350Z,39.00
2019-01-17T01:30:19.369Z,38.70
2019-01-17T01:32:52.067Z,38.50
2019-01-17T01:35:27.887Z,38.20
2019-01-17T01:38:13.170Z,38.20
2019-01-17T01:40:51.860Z,38.00
2019-01-17T01:43:24.857Z,38.20
2019-01-17T01:46:00.900Z,38.20
2019-01-17T01:48:47.427Z,38.20
2019-01-17T01:51:20.353Z,38.20
2019-01-17T01:53:48.737Z,38.20
2019-01-17T01:56:17.128Z,38.10
2019-01-17T01:58:45.513Z,37.90
2019-01-17T02:01:13.902Z,38.00
2019-01-17T02:03:42.285Z,37.90
2019-01-17T02:06:10.689Z,38.00
2019-01-17T02:08:39.095Z,37.90
2019-01-17T02:11:07.438Z,37.80
2019-01-17T02:13:35.738Z,37.90
2019-01-17T02:16:04.013Z,38.00
2019-01-17T02:18:32.316Z,38.10
2019-01-17T02:21:00.698Z,38.20
2019-01-17T02:23:29.132Z,38.30
2019-01-17T02:25:57.568Z,38.60
2019-01-17T02:28:25.938Z,38.70
2019-01-17T02:30:54.318Z,38.80
2019-01-17T02:33:22.640Z,39.00
2019-01-17T02:35:51.026Z,39.00
2019-01-17T02:38:19.398Z,39.10
2019-01-17T02:40:47.675Z,39.50
2019-01-17T02:43:16.047Z,39.80
2019-01-17T02:45:44.340Z,39.40
2019-01-17T02:48:12.698Z,39.50
2019-01-17T02:50:41.046Z,39.60
2019-01-17T02:53:09.372Z,39.70
2019-01-17T02:55:37.850Z,39.80
2019-01-17T02:58:06.215Z,39.90
2019-01-17T03:00:34.487Z,40.00
2019-01-17T03:03:02.808Z,40.10
2019-01-17T03:05:31.174Z,40.10
2019-01-17T03:07:59.566Z,40.10
2019-01-17T03:10:27.926Z,40.30
2019-01-17T03:12:56.259Z,40.50
2019-01-17T03:15:24.612Z,40.50
2019-01-17T03:17:53.013Z,40.60
2019-01-17T03:20:21.380Z,40.70
2019-01-17T03:22:49.738Z,40.90
2019-01-17T03:25:18.275Z,41.00
2019-01-17T03:27:46.661Z,41.10
2019-01-17T03:30:17.233Z,41.20
2019-01-17T03:32:45.593Z,41.20
2019-01-17T03:35:13.934Z,41.40
2019-01-17T03:37:42.243Z,41.60
2019-01-17T03:40:13.915Z,41.40
2019-01-17T03:42:42.315Z,41.40
2019-01-17T03:45:14.258Z,41.30
2019-01-17T03:47:42.630Z,41.30
2019-01-17T03:50:13.623Z,41.30
2019-01-17T03:52:42.160Z,41.30
2019-01-17T03:55:13.662Z,41.50
2019-01-17T03:57:42.041Z,41.70
2019-01-17T04:00:13.889Z,41.70
2019-01-17T04:02:42.198Z,41.90
2019-01-17T04:05:10.549Z,42.20
2019-01-17T04:07:38.930Z,42.40
2019-01-17T04:10:10.030Z,42.60
2019-01-17T04:12:38.426Z,42.90
2019-01-17T04:15:09.586Z,43.00
2019-01-17T04:17:37.938Z,43.10
2019-01-17T04:20:12.187Z,43.40
2019-01-17T04:22:40.559Z,43.30
2019-01-17T04:25:09.769Z,43.40
2019-01-17T04:27:38.306Z,43.70
2019-01-17T04:30:10.001Z,43.70
2019-01-17T04:32:38.463Z,43.70
2019-01-17T04:35:07.016Z,43.70
2019-01-17T04:37:35.410Z,43.70
2019-01-17T04:40:06.420Z,43.90
2019-01-17T04:42:34.814Z,44.00
2019-01-17T04:45:03.385Z,44.10
2019-01-17T04:47:31.730Z,44.20
2019-01-17T04:50:00.213Z,44.20
2019-01-17T04:52:28.776Z,44.20
2019-01-17T04:54:57.138Z,44.20
2019-01-17T04:57:25.510Z,44.20
2019-01-17T04:59:53.914Z,44.20
2019-01-17T05:02:22.264Z,44.20
2019-01-17T05:04:50.572Z,44.10
2019-01-17T05:07:19.048Z,44.00
2019-01-17T05:09:47.447Z,44.10
2019-01-17T05:12:15.806Z,44.30
2019-01-17T05:14:44.196Z,45.00
2019-01-17T05:17:12.562Z,44.60
2019-01-17T05:19:40.962Z,44.60
2019-01-17T05:22:09.417Z,44.70
2019-01-17T05:24:37.833Z,44.80
2019-01-17T05:27:06.199Z,44.70
2019-01-17T05:29:34.574Z,45.10
2019-01-17T05:32:02.940Z,44.70
2019-01-17T05:34:31.350Z,44.80
2019-01-17T05:36:59.717Z,44.70
2019-01-17T05:39:28.046Z,45.10
2019-01-17T05:41:56.431Z,44.60
2019-01-17T05:44:24.791Z,44.60
2019-01-17T05:46:53.145Z,44.70
2019-01-17T05:49:21.537Z,44.60
2019-01-17T05:51:49.913Z,44.70
2019-01-17T05:54:18.372Z,44.60
2019-01-17T05:56:46.764Z,44.60
2019-01-17T05:59:15.151Z,44.80
2019-01-17T06:01:43.431Z,45.00
2019-01-17T06:04:11.747Z,44.50
2019-01-17T06:06:40.161Z,45.00
2019-01-17T06:09:09.048Z,45.70
2019-01-17T06:11:37.537Z,47.30
2019-01-17T06:14:05.945Z,47.60
2019-01-17T06:16:34.285Z,48.30
2019-01-17T06:19:02.583Z,48.30
2019-01-17T06:21:30.883Z,48.30
2019-01-17T06:23:59.264Z,48.40
2019-01-17T06:26:27.565Z,48.30
2019-01-17T06:28:55.897Z,48.40
2019-01-17T06:31:24.254Z,48.30
2019-01-17T06:33:52.659Z,48.30
2019-01-17T06:36:20.954Z,48.40
2019-01-17T06:38:49.340Z,48.30
2019-01-17T06:41:17.642Z,48.30
2019-01-17T06:43:46.045Z,48.30
2019-01-17T06:46:14.429Z,48.50
2019-01-17T06:48:42.818Z,48.60
2019-01-17T06:51:11.183Z,48.60
2019-01-17T06:53:39.563Z,47.90
2019-01-17T06:56:07.933Z,48.20
2019-01-17T06:58:36.327Z,48.10
2019-01-17T07:01:04.711Z,48.10
2019-01-17T07:03:33.101Z,48.20
2019-01-17T07:06:01.412Z,48.10
2019-01-17T07:08:29.791Z,48.30
2019-01-17T07:10:58.118Z,48.40
2019-01-17T07:13:26.653Z,48.50
2019-01-17T07:15:55.027Z,48.50
2019-01-17T07:18:24.369Z,48.60
2019-01-17T07:20:52.771Z,48.60
2019-01-17T07:23:21.085Z,48.70
2019-01-17T07:25:49.480Z,49.00
2019-01-17T07:28:17.879Z,49.00
2019-01-17T07:30:46.263Z,49.00
2019-01-17T07:33:14.642Z,49.20
2019-01-17T07:35:42.953Z,49.20
2019-01-17T07:38:11.286Z,49.30
2019-01-17T07:40:39.662Z,49.20
2019-01-17T07:43:08.083Z,49.30
2019-01-17T07:45:36.458Z,49.30
2019-01-17T07:48:04.867Z,49.30
2019-01-17T07:50:33.271Z,49.40
2019-01-17T07:53:01.646Z,49.40
2019-01-17T07:55:30.114Z,49.40
2019-01-17T07:57:58.491Z,49.40
2019-01-17T08:00:26.884Z,49.30
2019-01-17T08:02:55.228Z,49.50
2019-01-17T08:05:23.613Z,49.60
2019-01-17T08:07:52.003Z,49.70
2019-01-17T08:10:20.547Z,49.60
2019-01-17T08:12:48.906Z,49.60
2019-01-17T08:15:17.251Z,49.70
2019-01-17T08:17:45.642Z,49.70
2019-01-17T08:20:17.207Z,49.90
2019-01-17T08:22:45.538Z,50.00
2019-01-17T08:25:13.846Z,49.70
2019-01-17T08:27:42.150Z,50.00
2019-01-17T08:30:19.011Z,50.10
2019-01-17T08:32:47.464Z,50.30
2019-01-17T08:35:16.282Z,50.30
2019-01-17T08:37:44.676Z,50.30
2019-01-17T08:40:22.166Z,50.30
2019-01-17T08:42:50.544Z,50.20
2019-01-17T08:45:18.927Z,50.10
2019-01-17T08:47:47.278Z,50.10
2019-01-17T08:50:16.047Z,50.00
2019-01-17T08:52:44.397Z,49.80
2019-01-17T08:55:12.801Z,49.80
2019-01-17T08:57:41.156Z,49.70
2019-01-17T09:00:17.943Z,49.40
2019-01-17T09:02:46.402Z,49.10
2019-01-17T09:05:14.785Z,49.40
2019-01-17T09:07:43.150Z,49.40
2019-01-17T09:10:20.168Z,49.30
2019-01-17T09:12:48.522Z,49.30
2019-01-17T09:15:22.430Z,49.20
2019-01-17T09:17:51.180Z,49.20
2019-01-17T09:20:19.556Z,49.10
2019-01-17T09:22:47.862Z,49.10
2019-01-17T09:25:17.285Z,49.00
2019-01-17T09:27:45.564Z,49.10
2019-01-17T09:30:18.476Z,49.10
2019-01-17T09:32:46.757Z,49.00
2019-01-17T09:35:16.397Z,48.90
2019-01-17T09:37:44.694Z,48.80
2019-01-17T09:40:15.988Z,48.90
2019-01-17T09:42:44.359Z,48.90
2019-01-17T09:45:12.750Z,48.90
2019-01-17T09:47:41.101Z,48.70
2019-01-17T09:50:17.310Z,48.80
2019-01-17T09:52:45.764Z,48.50
2019-01-17T09:55:14.136Z,48.60
2019-01-17T09:57:42.456Z,48.80
2019-01-17T10:00:19.934Z,48.90
2019-01-17T10:02:48.342Z,49.20
2019-01-17T10:05:16.713Z,49.10
2019-01-17T10:07:45.097Z,49.30
2019-01-17T10:10:18.432Z,49.40
2019-01-17T10:12:46.747Z,49.70
2019-01-17T10:15:24.335Z,49.70
2019-01-17T10:18:01.689Z,49.90
2019-01-17T10:20:52.690Z,50.10
2019-01-17T10:23:48.591Z,50.10
2019-01-17T10:26:23.064Z,50.30
2019-01-17T10:29:06.121Z,50.40
2019-01-17T10:31:46.483Z,50.60
2019-01-17T10:34:18.117Z,50.60
2019-01-17T10:36:52.383Z,50.70
2019-01-17T10:39:24.038Z,50.90
2019-01-17T10:42:14.028Z,51.40
2019-01-17T10:44:51.464Z,51.40
2019-01-17T10:47:42.181Z,51.30
2019-01-17T10:50:31.673Z,51.70
2019-01-17T10:53:03.234Z,51.50
2019-01-17T10:55:49.667Z,51.60
2019-01-17T10:58:26.519Z,51.70
2019-01-17T11:01:16.299Z,51.50
2019-01-17T11:04:00.075Z,51.60
2019-01-17T11:06:40.365Z,51.80
2019-01-17T11:09:12.001Z,51.80
2019-01-17T11:11:52.467Z,51.80
2019-01-17T11:14:26.887Z,51.90
2019-01-17T11:17:01.029Z,51.80
2019-01-17T11:19:41.601Z,52.20
2019-01-17T11:22:41.821Z,52.10
2019-01-17T11:25:13.665Z,52.10
2019-01-17T11:27:50.799Z,52.10
2019-01-17T11:30:49.325Z,52.20
2019-01-17T11:33:35.681Z,52.30
2019-01-17T11:36:09.863Z,52.20
2019-01-17T11:38:41.419Z,52.20
2019-01-17T11:41:46.263Z,52.30
2019-01-17T11:44:38.958Z,52.50
2019-01-17T11:47:19.322Z,52.40
2019-01-17T11:49:56.763Z,52.50
2019-01-17T11:52:46.444Z,52.60
2019-01-17T11:55:29.634Z,52.60
2019-01-17T11:58:16.202Z,52.60
2019-01-17T12:00:53.499Z,52.60
2019-01-17T12:03:31.290Z,52.60
2019-01-17T12:05:59.659Z,52.80
2019-01-17T12:08:28.104Z,52.80
2019-01-17T12:10:56.508Z,52.80
2019-01-17T12:13:24.874Z,52.70
2019-01-17T12:15:53.264Z,52.80
2019-01-17T12:18:21.584Z,52.80
2019-01-17T12:20:49.992Z,52.80
2019-01-17T12:23:18.342Z,52.70
2019-01-17T12:25:46.723Z,52.70
2019-01-17T12:28:16.449Z,52.60
2019-01-17T12:30:44.970Z,52.70
2019-01-17T12:33:13.241Z,52.70
2019-01-17T12:35:41.537Z,52.70
2019-01-17T12:38:11.371Z,52.80
2019-01-17T12:40:39.725Z,52.80
2019-01-17T12:43:08.104Z,52.30
2019-01-17T12:45:36.504Z,51.20
2019-01-17T12:48:04.966Z,50.70
2019-01-17T12:50:33.340Z,50.10
2019-01-17T12:53:01.720Z,49.90
2019-01-17T12:55:30.120Z,50.10
2019-01-17T12:57:58.486Z,50.10
2019-01-17T13:00:26.844Z,50.20
2019-01-17T13:02:55.157Z,50.30
2019-01-17T13:05:23.540Z,50.40
2019-01-17T13:07:51.916Z,50.60
2019-01-17T13:10:20.232Z,50.80
2019-01-17T13:12:48.615Z,50.90
2019-01-17T13:15:16.975Z,50.90
2019-01-17T13:17:45.357Z,51.10
2019-01-17T13:20:15.472Z,51.20
2019-01-17T13:22:43.830Z,51.30
2019-01-17T13:25:15.281Z,51.50
2019-01-17T13:27:43.704Z,51.70
2019-01-17T13:30:17.870Z,51.90
2019-01-17T13:32:46.302Z,52.00
2019-01-17T13:35:14.580Z,52.10
2019-01-17T13:37:42.883Z,52.30
2019-01-17T13:40:17.350Z,52.50
2019-01-17T13:42:45.728Z,52.50
2019-01-17T13:45:16.574Z,52.50
2019-01-17T13:47:44.976Z,52.50
2019-01-17T13:50:13.858Z,52.60
2019-01-17T13:52:42.174Z,52.40
2019-01-17T13:55:12.612Z,52.30
2019-01-17T13:57:40.966Z,51.90
2019-01-17T14:00:12.633Z,51.60
2019-01-17T14:02:40.986Z,51.20
2019-01-17T14:05:09.356Z,50.50
2019-01-17T14:07:37.744Z,50.30
2019-01-17T14:10:09.418Z,50.40
2019-01-17T14:12:37.780Z,50.10
2019-01-17T14:15:09.418Z,50.10
2019-01-17T14:17:37.803Z,50.20
2019-01-17T14:20:09.012Z,50.10
2019-01-17T14:22:37.396Z,49.80
2019-01-17T14:25:08.942Z,49.70
2019-01-17T14:27:37.329Z,49.70
2019-01-17T14:30:11.864Z,49.60
2019-01-17T14:32:40.208Z,49.40
2019-01-17T14:35:08.556Z,49.30
2019-01-17T14:37:36.924Z,49.00
2019-01-17T14:40:08.046Z,48.80
2019-01-17T14:42:36.360Z,48.60
2019-01-17T14:45:07.974Z,48.60
2019-01-17T14:47:36.283Z,48.60
2019-01-17T14:50:07.843Z,48.20
2019-01-17T14:52:36.228Z,48.30
2019-01-17T14:55:07.402Z,48.50
2019-01-17T14:57:35.757Z,48.40
2019-01-17T15:00:10.305Z,48.20
2019-01-17T15:02:38.676Z,47.90
2019-01-17T15:05:09.204Z,47.90
2019-01-17T15:07:37.590Z,47.80
2019-01-17T15:10:12.166Z,47.80
2019-01-17T15:12:40.541Z,47.80
2019-01-17T15:15:09.870Z,47.80
2019-01-17T15:17:38.176Z,47.80
2019-01-17T15:20:09.835Z,47.90
2019-01-17T15:22:38.481Z,48.10
2019-01-17T15:25:06.872Z,48.20
2019-01-17T15:27:35.356Z,48.40
2019-01-17T15:30:05.360Z,48.40
2019-01-17T15:32:33.726Z,49.30
2019-01-17T15:35:02.138Z,49.30
2019-01-17T15:37:30.525Z,49.40
2019-01-17T15:39:58.899Z,49.40
2019-01-17T15:42:27.334Z,49.50
2019-01-17T15:44:55.708Z,49.50
2019-01-17T15:47:24.127Z,49.50
2019-01-17T15:49:52.472Z,49.60
2019-01-17T15:52:20.833Z,49.60
2019-01-17T15:54:49.179Z,49.60
2019-01-17T15:57:17.523Z,49.50
2019-01-17T15:59:45.877Z,49.40
2019-01-17T16:02:14.206Z,49.40
2019-01-17T16:04:42.737Z,49.70
2019-01-17T16:07:11.054Z,49.10
2019-01-17T16:09:39.415Z,49.10
2019-01-17T16:12:07.818Z,49.00
2019-01-17T16:14:36.186Z,49.00
2019-01-17T16:17:04.572Z,48.60
2019-01-17T16:19:32.949Z,48.50
2019-01-17T16:22:01.352Z,48.50
2019-01-17T16:24:29.793Z,48.50
2019-01-17T16:26:58.275Z,48.70
2019-01-17T16:29:26.663Z,48.50
2019-01-17T16:31:55.065Z,47.50
2019-01-17T16:34:23.472Z,47.40
2019-01-17T16:36:51.888Z,47.70
2019-01-17T16:39:20.277Z,47.10
2019-01-17T16:41:48.613Z,47.50
2019-01-17T16:44:16.983Z,47.20
2019-01-17T16:46:45.397Z,47.50
2019-01-17T16:49:13.871Z,47.60
2019-01-17T16:51:42.289Z,47.50
2019-01-17T16:54:10.689Z,47.50
2019-01-17T16:56:39.075Z,47.20
2019-01-17T16:59:07.396Z,46.90
2019-01-17T17:01:35.799Z,47.00
2019-01-17T17:04:04.093Z,47.30
2019-01-17T17:06:32.473Z,46.80
2019-01-17T17:09:00.749Z,46.70
2019-01-17T17:11:29.122Z,46.70
2019-01-17T17:13:57.390Z,46.90
2019-01-17T17:16:25.678Z,46.70
2019-01-17T17:18:53.980Z,47.00
2019-01-17T17:21:22.309Z,47.00
2019-01-17T17:23:50.635Z,46.80
2019-01-17T17:26:19.030Z,46.90
2019-01-17T17:28:47.413Z,46.90
2019-01-17T17:31:15.782Z,46.80
2019-01-17T17:33:44.166Z,46.80
2019-01-17T17:36:12.549Z,46.70
2019-01-17T17:38:40.924Z,46.80
2019-01-17T17:41:09.207Z,46.70
2019-01-17T17:43:37.612Z,46.70
2019-01-17T17:46:06.130Z,46.70
2019-01-17T17:48:34.437Z,46.90
2019-01-17T17:51:03.077Z,46.80
2019-01-17T17:53:31.416Z,46.70
2019-01-17T17:56:01.795Z,46.50
2019-01-17T17:58:30.423Z,46.70
2019-01-17T18:01:00.555Z,46.40
2019-01-17T18:03:28.896Z,46.30
2019-01-17T18:05:57.255Z,46.20
2019-01-17T18:08:25.653Z,46.20
2019-01-17T18:10:54.017Z,46.30
2019-01-17T18:13:22.422Z,46.30
2019-01-17T18:15:50.728Z,46.60
2019-01-17T18:18:19.238Z,47.40
2019-01-17T18:20:47.549Z,48.60
2019-01-17T18:23:15.934Z,49.40
2019-01-17T18:25:44.316Z,49.60
2019-01-17T18:28:12.706Z,49.60
2019-01-17T18:30:41.094Z,49.60
2019-01-17T18:33:09.677Z,49.60
2019-01-17T18:35:38.131Z,49.60
2019-01-17T18:38:06.464Z,49.70
2019-01-17T18:40:34.749Z,49.80
2019-01-17T18:43:03.155Z,49.90
2019-01-17T18:45:31.520Z,50.00
2019-01-17T18:47:59.910Z,50.20
2019-01-17T18:50:33.942Z,50.40
2019-01-17T18:53:02.320Z,50.30
2019-01-17T18:55:30.773Z,50.30
2019-01-17T18:57:59.090Z,49.90
2019-01-17T19:00:29.191Z,49.90
2019-01-17T19:02:58.025Z,49.80
2019-01-17T19:05:26.432Z,49.50
2019-01-17T19:07:54.982Z,49.60
2019-01-17T19:10:23.614Z,49.60
2019-01-17T19:12:52.174Z,49.50
2019-01-17T19:15:28.940Z,49.60
2019-01-17T19:17:57.337Z,49.50
2019-01-17T19:20:25.688Z,49.20
2019-01-17T19:22:54.091Z,49.40
2019-01-17T19:25:22.598Z,49.40
2019-01-17T19:27:50.983Z,49.50
2019-01-17T19:30:22.072Z,49.60
2019-01-17T19:32:50.471Z,49.60
2019-01-17T19:35:18.865Z,49.70
2019-01-17T19:37:47.238Z,49.80
2019-01-17T19:40:20.099Z,49.80
2019-01-17T19:42:48.816Z,49.80
2019-01-17T19:45:17.138Z,49.70
2019-01-17T19:47:45.660Z,49.70
2019-01-17T19:50:17.492Z,49.70
2019-01-17T19:52:46.039Z,49.60
2019-01-17T19:55:17.923Z,49.50
2019-01-17T19:57:46.506Z,49.30
2019-01-17T20:00:18.064Z,49.20
2019-01-17T20:02:46.452Z,49.20
2019-01-17T20:05:18.105Z,49.20
2019-01-17T20:07:46.495Z,49.20
2019-01-17T20:10:17.641Z,49.20
2019-01-17T20:12:46.002Z,49.20
2019-01-17T20:15:14.411Z,49.20
2019-01-17T20:17:42.724Z,49.20
2019-01-17T20:20:13.896Z,48.90
2019-01-17T20:22:42.311Z,48.70
2019-01-17T20:25:10.818Z,48.70
2019-01-17T20:27:40.341Z,48.80
2019-01-17T20:30:14.353Z,48.60
2019-01-17T20:32:42.777Z,48.80
2019-01-17T20:35:11.227Z,48.80
2019-01-17T20:37:39.729Z,48.80
2019-01-17T20:40:20.139Z,48.70
2019-01-17T20:42:48.654Z,48.80
2019-01-17T20:45:17.103Z,48.60
2019-01-17T20:47:45.645Z,48.50
2019-01-17T20:50:19.628Z,48.60
2019-01-17T20:52:48.200Z,48.50
2019-01-17T20:55:16.606Z,48.20
2019-01-17T20:57:45.715Z,48.30
2019-01-17T21:00:20.153Z,48.30
2019-01-17T21:02:48.590Z,48.20
2019-01-17T21:05:17.319Z,48.20
2019-01-17T21:07:45.731Z,48.10
2019-01-17T21:10:15.907Z,48.20
2019-01-17T21:12:44.309Z,48.20
2019-01-17T21:15:14.088Z,48.30
2019-01-17T21:17:42.456Z,48.30
2019-01-17T21:20:12.517Z,48.40
2019-01-17T21:22:40.929Z,48.50
2019-01-17T21:25:12.279Z,48.20
2019-01-17T21:27:40.664Z,48.20
2019-01-17T21:30:25.500Z,47.90
2019-01-17T21:32:53.934Z,47.90
2019-01-17T21:35:22.258Z,48.10
2019-01-17T21:37:50.712Z,47.90
2019-01-17T21:40:20.899Z,47.90
2019-01-17T21:42:49.204Z,47.50
2019-01-17T21:45:18.755Z,47.70
2019-01-17T21:47:48.823Z,47.40
2019-01-17T21:50:28.844Z,46.90
2019-01-17T21:52:57.219Z,46.30
2019-01-17T21:55:25.665Z,45.70
2019-01-17T21:57:54.066Z,44.80
2019-01-17T22:00:24.808Z,45.20
2019-01-17T22:02:53.222Z,45.10
2019-01-17T22:05:21.603Z,45.30
2019-01-17T22:07:50.021Z,45.30
2019-01-17T22:10:19.445Z,45.10
2019-01-17T22:12:47.820Z,44.70
2019-01-17T22:15:18.637Z,44.70
2019-01-17T22:17:47.089Z,44.50
2019-01-17T22:20:15.829Z,43.60
2019-01-17T22:22:44.233Z,44.00
2019-01-17T22:25:15.847Z,44.10
2019-01-17T22:27:44.253Z,44.30
2019-01-17T22:30:17.857Z,44.30
2019-01-17T22:32:46.240Z,44.30
2019-01-17T22:35:14.545Z,43.50
2019-01-17T22:37:42.952Z,43.60
2019-01-17T22:40:16.165Z,43.60
2019-01-17T22:42:44.592Z,43.00
2019-01-17T22:45:15.700Z,43.20
2019-01-17T22:47:44.105Z,43.00
2019-01-17T22:50:17.424Z,42.80
2019-01-17T22:52:46.117Z,43.10
2019-01-17T22:55:14.438Z,43.10
2019-01-17T22:57:42.837Z,43.10
2019-01-17T23:00:30.965Z,43.60
2019-01-17T23:02:59.479Z,43.50
2019-01-17T23:05:27.925Z,43.80
2019-01-17T23:07:56.399Z,44.00
2019-01-17T23:10:24.695Z,43.70
2019-01-17T23:12:53.907Z,43.80
2019-01-17T23:15:22.296Z,43.60
2019-01-17T23:17:50.638Z,43.70
2019-01-17T23:20:19.046Z,43.70
2019-01-17T23:22:47.653Z,43.60
2019-01-17T23:25:16.043Z,43.60
2019-01-17T23:27:45.705Z,43.60
2019-01-17T23:30:15.662Z,43.40
2019-01-17T23:32:44.097Z,43.60
2019-01-17T23:35:12.461Z,43.30
2019-01-17T23:37:40.925Z,43.40
2019-01-17T23:40:10.321Z,43.50
2019-01-17T23:42:38.723Z,43.70
2019-01-17T23:45:08.424Z,43.80
2019-01-17T23:47:36.803Z,43.80
2019-01-17T23:50:10.323Z,43.60
2019-01-17T23:52:38.755Z,43.80
2019-01-17T23:55:07.957Z,43.70
2019-01-17T23:57:36.296Z,43.70
